createdAt,value
2023-05-16T00:01:55.623Z,8.00
2023-05-16T00:04:53.960Z,8.50
2023-05-16T00:07:51.911Z,8.00
2023-05-16T00:10:49.846Z,8.02
2023-05-16T00:13:48.454Z,8.38
2023-05-16T00:16:47.935Z,8.40
2023-05-16T00:19:48.092Z,8.27
2023-05-16T00:22:46.758Z,8.05
2023-05-16T00:25:45.148Z,7.82
2023-05-16T00:28:43.070Z,8.50
2023-05-16T00:31:41.113Z,8.13
2023-05-16T00:34:39.172Z,9.60
2023-05-16T00:37:37.777Z,9.32
2023-05-16T00:40:35.659Z,9.43
2023-05-16T00:43:33.571Z,9.05
2023-05-16T00:46:31.434Z,8.85
2023-05-16T00:49:30.257Z,9.45
2023-05-16T00:52:28.386Z,8.82
2023-05-16T00:55:27.127Z,10.30
2023-05-16T00:58:26.150Z,9.85
2023-05-16T01:01:26.613Z,10.13
2023-05-16T01:04:25.323Z,9.70
2023-05-16T01:07:23.591Z,10.43
2023-05-16T01:10:21.758Z,10.68
2023-05-16T01:13:42.781Z,11.73
2023-05-16T01:16:45.370Z,10.98
2023-05-16T01:19:58.202Z,10.63
2023-05-16T01:22:56.073Z,11.80
2023-05-16T01:26:28.631Z,10.68
2023-05-16T01:29:27.013Z,10.95
2023-05-16T01:32:25.323Z,11.57
2023-05-16T01:35:23.424Z,10.35
2023-05-16T01:38:31.446Z,10.65
2023-05-16T01:41:43.298Z,10.23
2023-05-16T01:45:22.828Z,10.38
2023-05-16T01:48:27.908Z,10.45
2023-05-16T01:51:31.274Z,10.70
2023-05-16T01:54:34.097Z,11.20
2023-05-16T01:57:32.580Z,10.80
2023-05-16T02:00:30.363Z,10.88
2023-05-16T02:03:28.575Z,12.45
2023-05-16T02:06:27.128Z,11.90
2023-05-16T02:09:26.641Z,11.65
2023-05-16T02:12:25.297Z,12.38
2023-05-16T02:15:23.208Z,11.52
2023-05-16T02:18:21.055Z,11.02
2023-05-16T02:21:18.973Z,11.18
2023-05-16T02:24:16.941Z,12.35
2023-05-16T02:27:14.873Z,12.65
2023-05-16T02:30:13.218Z,11.10
2023-05-16T02:33:12.095Z,12.15
2023-05-16T02:36:10.419Z,12.43
2023-05-16T02:39:10.481Z,13.15
2023-05-16T02:42:08.988Z,11.88
2023-05-16T02:45:07.231Z,11.68
2023-05-16T02:48:05.365Z,10.48
2023-05-16T02:51:03.258Z,11.35
2023-05-16T02:54:01.808Z,10.65
2023-05-16T02:56:59.627Z,10.20
2023-05-16T02:59:57.541Z,10.68
2023-05-16T03:02:55.419Z,10.05
2023-05-16T03:05:53.833Z,10.48
2023-05-16T03:08:51.693Z,9.43
2023-05-16T03:11:49.676Z,10.13
2023-05-16T03:14:47.522Z,10.63
2023-05-16T03:17:45.488Z,10.40
2023-05-16T03:20:43.386Z,11.45
2023-05-16T03:23:43.095Z,11.77
2023-05-16T03:26:41.140Z,10.82
2023-05-16T03:29:39.083Z,10.40
2023-05-16T03:32:37.061Z,12.35
2023-05-16T03:35:36.310Z,12.48
2023-05-16T03:38:34.313Z,11.38
2023-05-16T03:41:32.134Z,12.30
2023-05-16T03:44:30.225Z,12.93
2023-05-16T03:47:31.812Z,11.82
2023-05-16T03:50:29.663Z,10.77
2023-05-16T03:53:27.807Z,12.88
2023-05-16T03:56:25.881Z,10.85
2023-05-16T03:59:23.670Z,12.75
2023-05-16T04:02:21.654Z,11.25
2023-05-16T04:05:19.594Z,14.15
2023-05-16T04:08:17.516Z,14.90
2023-05-16T04:11:15.372Z,12.98
2023-05-16T04:14:13.284Z,12.73
2023-05-16T04:17:11.451Z,11.40
2023-05-16T04:20:09.773Z,14.98
2023-05-16T04:23:07.618Z,12.50
2023-05-16T04:26:05.682Z,12.15
2023-05-16T04:29:03.707Z,13.50
2023-05-16T04:32:01.819Z,12.32
2023-05-16T04:34:59.712Z,12.80
2023-05-16T04:37:57.710Z,13.38
2023-05-16T04:40:55.632Z,12.18
2023-05-16T04:43:54.093Z,13.73
2023-05-16T04:46:52.240Z,13.23
2023-05-16T04:49:50.206Z,13.00
2023-05-16T04:52:48.102Z,14.23
2023-05-16T04:55:46.193Z,15.57
2023-05-16T04:58:44.139Z,13.07
2023-05-16T05:01:42.289Z,14.38
2023-05-16T05:04:40.359Z,14.07
2023-05-16T05:07:38.309Z,15.23
2023-05-16T05:10:36.359Z,12.73
2023-05-16T05:13:34.343Z,13.55
2023-05-16T05:16:32.526Z,14.90
2023-05-16T05:19:30.443Z,12.57
2023-05-16T05:22:28.463Z,12.90
2023-05-16T05:25:27.196Z,11.82
2023-05-16T05:28:25.307Z,14.82
2023-05-16T05:31:23.264Z,16.73
2023-05-16T05:34:21.590Z,14.75
2023-05-16T05:37:19.694Z,15.23
2023-05-16T05:40:17.563Z,14.75
2023-05-16T05:43:15.619Z,13.68
2023-05-16T05:46:13.462Z,15.43
2023-05-16T05:49:11.512Z,14.38
2023-05-16T05:52:09.446Z,14.63
2023-05-16T05:55:07.892Z,18.08
2023-05-16T05:58:08.963Z,17.08
2023-05-16T06:01:06.859Z,18.52
2023-05-16T06:04:04.889Z,15.63
2023-05-16T06:07:02.665Z,14.98
2023-05-16T06:10:05.166Z,14.55
2023-05-16T06:16:01.118Z,15.00
2023-05-16T06:18:59.034Z,17.88
2023-05-16T06:21:57.365Z,16.08
2023-05-16T06:24:55.313Z,16.60
2023-05-16T06:27:53.197Z,18.60
2023-05-16T06:30:52.923Z,16.40
2023-05-16T06:33:51.429Z,18.95
2023-05-16T06:36:49.250Z,19.10
2023-05-16T06:39:48.485Z,16.83
2023-05-16T06:42:46.386Z,16.58
2023-05-16T06:45:47.359Z,19.83
2023-05-16T06:48:45.419Z,21.00
2023-05-16T06:51:43.356Z,19.58
2023-05-16T06:54:41.533Z,19.55
2023-05-16T06:57:39.548Z,17.60
2023-05-16T07:00:37.487Z,17.45
2023-05-16T07:03:36.020Z,18.65
2023-05-16T07:06:34.083Z,18.35
2023-05-16T07:09:32.201Z,18.52
2023-05-16T07:12:30.897Z,20.52
2023-05-16T07:15:32.198Z,19.83
2023-05-16T07:18:30.234Z,20.05
2023-05-16T07:21:28.559Z,21.02
2023-05-16T07:24:26.692Z,20.13
2023-05-16T07:27:24.698Z,23.63
2023-05-16T07:30:22.752Z,17.70
2023-05-16T07:33:20.630Z,20.88
2023-05-16T07:36:18.606Z,20.27
2023-05-16T07:39:17.477Z,18.95
2023-05-16T07:42:16.333Z,21.05
2023-05-16T07:45:14.236Z,22.20
2023-05-16T07:48:12.430Z,22.65
2023-05-16T07:51:10.408Z,22.67
2023-05-16T07:54:09.187Z,22.25
2023-05-16T07:57:07.916Z,22.70
2023-05-16T08:00:06.423Z,21.55
2023-05-16T08:03:04.780Z,18.77
2023-05-16T08:06:03.003Z,21.25
2023-05-16T08:09:01.519Z,19.83
2023-05-16T08:12:04.207Z,22.20
2023-05-16T08:15:02.353Z,19.73
2023-05-16T08:18:00.503Z,18.52
2023-05-16T08:20:58.579Z,20.50
2023-05-16T08:23:56.595Z,20.88
2023-05-16T08:26:54.606Z,23.02
2023-05-16T08:29:52.420Z,21.85
2023-05-16T08:32:50.426Z,20.20
2023-05-16T08:35:50.151Z,17.88
2023-05-16T08:38:48.701Z,18.45
2023-05-16T08:41:47.025Z,19.75
2023-05-16T08:44:44.906Z,16.73
2023-05-16T08:47:44.948Z,18.15
2023-05-16T08:50:44.676Z,16.92
2023-05-16T08:54:04.042Z,14.57
2023-05-16T08:57:03.511Z,13.75
2023-05-16T09:00:01.888Z,14.77
2023-05-16T09:03:00.776Z,13.07
2023-05-16T09:05:58.922Z,11.18
2023-05-16T09:08:57.152Z,13.75
2023-05-16T09:11:55.276Z,11.27
2023-05-16T09:14:56.853Z,11.38
2023-05-16T09:17:54.897Z,12.03
2023-05-16T09:20:54.579Z,11.63
2023-05-16T09:23:53.219Z,11.75
2023-05-16T09:26:53.269Z,11.68
2023-05-16T09:29:52.684Z,10.98
2023-05-16T09:32:54.288Z,11.43
2023-05-16T09:36:01.918Z,12.73
2023-05-16T09:39:00.061Z,11.40
2023-05-16T09:42:00.206Z,12.45
2023-05-16T09:44:58.468Z,13.98
2023-05-16T09:48:02.600Z,11.75
2023-05-16T09:51:04.833Z,13.25
2023-05-16T09:54:02.822Z,12.68
2023-05-16T09:57:03.002Z,15.52
2023-05-16T10:00:06.639Z,14.73
2023-05-16T10:03:05.670Z,15.38
2023-05-16T10:06:06.263Z,14.55
2023-05-16T10:09:04.746Z,17.83
2023-05-16T10:12:05.014Z,19.30
2023-05-16T10:15:04.739Z,13.27
2023-05-16T10:18:05.060Z,11.70
2023-05-16T10:21:09.654Z,18.88
2023-05-16T10:24:13.898Z,13.57
2023-05-16T10:27:13.082Z,12.70
2023-05-16T10:30:12.316Z,11.02
2023-05-16T10:33:17.326Z,12.35
2023-05-16T10:36:16.990Z,12.68
2023-05-16T10:39:16.119Z,12.98
2023-05-16T10:42:18.876Z,16.42
2023-05-16T10:45:21.369Z,17.27
2023-05-16T10:48:36.886Z,16.52
2023-05-16T10:51:39.468Z,17.27
2023-05-16T10:54:43.395Z,16.05
2023-05-16T10:57:45.188Z,16.67
2023-05-16T11:00:43.040Z,15.10
2023-05-16T11:04:01.006Z,14.75
2023-05-16T11:06:59.622Z,14.85
2023-05-16T11:10:12.224Z,15.93
2023-05-16T11:13:10.716Z,14.00
2023-05-16T11:16:30.854Z,14.18
2023-05-16T11:19:41.315Z,13.77
2023-05-16T11:22:42.614Z,15.35
2023-05-16T11:25:41.972Z,15.23
2023-05-16T11:28:40.230Z,16.42
2023-05-16T11:31:38.539Z,14.80
2023-05-16T11:34:40.579Z,14.80
2023-05-16T11:37:40.090Z,14.38
2023-05-16T11:40:38.127Z,14.98
2023-05-16T11:43:44.161Z,16.50
2023-05-16T11:46:42.404Z,15.55
2023-05-16T11:49:43.229Z,12.15
2023-05-16T11:52:44.695Z,15.50
2023-05-16T11:55:43.059Z,16.13
2023-05-16T11:58:41.656Z,17.27
2023-05-16T12:01:40.862Z,16.52
2023-05-16T12:04:39.385Z,16.60
2023-05-16T12:07:38.919Z,15.63
2023-05-16T12:10:37.531Z,15.93
2023-05-16T12:13:36.108Z,17.77
2023-05-16T12:16:35.095Z,14.88
2023-05-16T12:19:33.287Z,14.05
2023-05-16T12:22:31.821Z,13.07
2023-05-16T12:25:36.277Z,12.68
2023-05-16T12:28:36.148Z,15.75
2023-05-16T12:31:38.759Z,14.23
2023-05-16T12:37:34.392Z,15.95
2023-05-16T12:40:32.628Z,15.18
2023-05-16T12:43:30.924Z,17.08
2023-05-16T12:46:31.992Z,15.18
2023-05-16T12:49:30.049Z,15.93
2023-05-16T12:52:30.323Z,14.93
2023-05-16T12:55:28.337Z,14.20
2023-05-16T12:58:26.999Z,15.20
2023-05-16T13:01:25.164Z,14.85
2023-05-16T13:04:24.307Z,14.65
2023-05-16T13:07:22.500Z,13.90
2023-05-16T13:10:20.813Z,15.38
2023-05-16T13:13:32.533Z,15.35
2023-05-16T13:16:33.878Z,15.57
2023-05-16T13:19:34.401Z,14.48
2023-05-16T13:22:32.349Z,13.50
2023-05-16T13:25:30.622Z,13.65
2023-05-16T13:28:28.648Z,12.13
2023-05-16T13:31:26.773Z,11.50
2023-05-16T13:34:24.690Z,11.35
2023-05-16T13:37:25.046Z,9.70
2023-05-16T13:40:23.118Z,10.05
2023-05-16T13:43:21.191Z,8.77
2023-05-16T13:46:19.171Z,8.75
2023-05-16T13:49:17.251Z,8.32
2023-05-16T13:52:15.444Z,8.50
2023-05-16T13:55:13.564Z,8.48
2023-05-16T13:58:11.503Z,8.52
2023-05-16T14:01:09.604Z,8.50
2023-05-16T14:04:07.685Z,8.32
2023-05-16T14:07:06.021Z,7.55
2023-05-16T14:10:04.788Z,7.28
2023-05-16T14:13:03.135Z,8.52
2023-05-16T14:16:01.197Z,8.90
2023-05-16T14:18:59.230Z,8.50
2023-05-16T14:21:57.294Z,8.18
2023-05-16T14:24:55.275Z,8.23
2023-05-16T14:27:53.324Z,7.20
2023-05-16T14:30:51.209Z,7.80
2023-05-16T14:33:49.256Z,7.68
2023-05-16T14:36:47.463Z,7.38
2023-05-16T14:39:48.844Z,8.32
2023-05-16T14:42:46.920Z,7.82
2023-05-16T14:45:45.088Z,8.40
2023-05-16T14:48:43.080Z,8.60
2023-05-16T14:51:41.112Z,6.90
2023-05-16T14:54:39.033Z,9.18
2023-05-16T14:57:37.215Z,9.13
2023-05-16T15:00:35.287Z,9.25
2023-05-16T15:03:43.319Z,8.68
2023-05-16T15:06:49.177Z,8.55
2023-05-16T15:09:47.283Z,8.63
2023-05-16T15:12:45.170Z,8.20
2023-05-16T15:15:43.437Z,7.88
2023-05-16T15:18:42.233Z,8.10
2023-05-16T15:21:43.383Z,11.07
2023-05-16T15:24:41.632Z,14.90
2023-05-16T15:27:39.686Z,11.40
2023-05-16T15:30:37.557Z,10.57
2023-05-16T15:33:35.700Z,10.20
2023-05-16T15:36:33.998Z,11.38
2023-05-16T15:39:32.471Z,10.00
2023-05-16T15:42:30.729Z,8.57
2023-05-16T15:45:29.281Z,9.07
2023-05-16T15:48:27.606Z,9.60
2023-05-16T15:51:25.759Z,8.82
2023-05-16T15:54:23.722Z,8.88
2023-05-16T15:57:22.156Z,8.65
2023-05-16T16:00:20.211Z,10.57
2023-05-16T16:03:19.245Z,8.77
2023-05-16T16:06:17.240Z,8.18
2023-05-16T16:09:16.496Z,8.52
2023-05-16T16:12:14.389Z,8.20
2023-05-16T16:15:12.664Z,8.35
2023-05-16T16:18:12.183Z,8.85
2023-05-16T16:21:12.226Z,8.40
2023-05-16T16:24:10.210Z,7.63
2023-05-16T16:27:08.273Z,7.82
2023-05-16T16:30:06.838Z,8.55
2023-05-16T16:33:05.017Z,7.90
2023-05-16T16:36:03.186Z,7.72
2023-05-16T16:39:01.961Z,9.43
2023-05-16T16:41:59.918Z,8.55
2023-05-16T16:44:58.258Z,8.63
2023-05-16T16:47:56.281Z,8.52
2023-05-16T16:50:54.697Z,8.95
2023-05-16T16:53:52.644Z,7.70
2023-05-16T16:56:51.340Z,8.13
2023-05-16T16:59:50.157Z,8.10
2023-05-16T17:02:48.315Z,8.55
2023-05-16T17:05:46.510Z,9.15
2023-05-16T17:08:44.665Z,9.05
2023-05-16T17:11:43.068Z,7.95
2023-05-16T17:14:42.990Z,8.88
2023-05-16T17:17:41.063Z,6.45
2023-05-16T17:20:39.274Z,6.80
2023-05-16T17:23:37.275Z,6.65
2023-05-16T17:26:35.580Z,6.70
2023-05-16T17:29:34.154Z,6.88
2023-05-16T17:32:32.319Z,5.68
2023-05-16T17:35:30.682Z,6.38
2023-05-16T17:38:28.987Z,5.53
2023-05-16T17:41:26.972Z,5.72
2023-05-16T17:44:25.011Z,5.70
2023-05-16T17:47:23.736Z,5.68
2023-05-16T17:50:22.632Z,5.60
2023-05-16T17:53:20.679Z,5.40
2023-05-16T17:56:19.311Z,5.07
2023-05-16T17:59:18.367Z,5.00
2023-05-16T18:02:17.358Z,5.45
2023-05-16T18:05:17.188Z,5.32
2023-05-16T18:08:15.238Z,5.25
2023-05-16T18:11:13.165Z,5.03
2023-05-16T18:14:14.568Z,5.65
2023-05-16T18:17:13.891Z,4.90
2023-05-16T18:20:12.665Z,5.28
2023-05-16T18:23:10.758Z,5.40
2023-05-16T18:26:10.765Z,5.55
2023-05-16T18:29:11.244Z,4.97
2023-05-16T18:32:10.250Z,4.80
2023-05-16T18:35:08.695Z,5.68
2023-05-16T18:38:09.072Z,7.32
2023-05-16T18:41:10.478Z,9.05
2023-05-16T18:44:08.568Z,10.68
2023-05-16T18:47:06.823Z,12.00
2023-05-16T18:50:05.392Z,12.25
2023-05-16T18:53:03.468Z,10.40
2023-05-16T18:56:02.079Z,10.57
2023-05-16T18:59:00.664Z,11.70
2023-05-16T19:01:58.814Z,11.25
2023-05-16T19:04:58.867Z,9.65
2023-05-16T19:07:58.675Z,9.98
2023-05-16T19:10:57.348Z,9.02
2023-05-16T19:13:56.426Z,9.00
2023-05-16T19:16:54.333Z,8.70
2023-05-16T19:19:52.936Z,7.93
2023-05-16T19:22:51.055Z,7.50
2023-05-16T19:25:49.850Z,7.80
2023-05-16T19:28:47.737Z,7.65
2023-05-16T19:31:45.737Z,6.85
2023-05-16T19:34:44.213Z,7.03
2023-05-16T19:37:42.321Z,6.65
2023-05-16T19:40:40.335Z,6.45
2023-05-16T19:43:38.440Z,6.18
2023-05-16T19:46:36.370Z,6.53
2023-05-16T19:49:34.460Z,6.95
2023-05-16T19:52:32.377Z,6.50
2023-05-16T19:55:32.011Z,6.30
2023-05-16T19:58:30.227Z,7.28
2023-05-16T20:01:28.254Z,6.78
2023-05-16T20:04:26.988Z,7.97
2023-05-16T20:07:25.104Z,8.40
2023-05-16T20:10:23.044Z,8.20
2023-05-16T20:13:21.689Z,7.60
2023-05-16T20:16:21.083Z,7.90
2023-05-16T20:19:19.861Z,7.45
2023-05-16T20:22:17.874Z,8.18
2023-05-16T20:25:15.902Z,8.15
2023-05-16T20:28:13.783Z,7.00
2023-05-16T20:31:11.782Z,7.68
2023-05-16T20:34:09.937Z,6.68
2023-05-16T20:37:08.030Z,6.75
2023-05-16T20:40:06.748Z,8.35
2023-05-16T20:43:04.763Z,6.78
2023-05-16T20:46:02.661Z,7.10
2023-05-16T20:49:00.635Z,7.55
2023-05-16T20:51:58.581Z,7.28
2023-05-16T20:54:58.927Z,6.88
2023-05-16T20:57:57.267Z,7.50
2023-05-16T21:00:55.229Z,7.20
2023-05-16T21:03:53.152Z,8.05
2023-05-16T21:06:51.279Z,7.22
2023-05-16T21:09:49.213Z,7.20
2023-05-16T21:12:47.338Z,7.00
2023-05-16T21:15:45.301Z,7.57
2023-05-16T21:18:43.502Z,6.82
2023-05-16T21:21:41.456Z,7.30
2023-05-16T21:24:39.498Z,7.03
2023-05-16T21:27:37.585Z,7.20
2023-05-16T21:30:35.530Z,6.55
2023-05-16T21:33:33.378Z,6.07
2023-05-16T21:36:31.910Z,7.68
2023-05-16T21:39:29.771Z,6.45
2023-05-16T21:42:27.800Z,6.45
2023-05-16T21:45:25.791Z,6.28
2023-05-16T21:48:24.044Z,6.82
2023-05-16T21:51:21.979Z,6.20
2023-05-16T21:54:19.921Z,6.47
2023-05-16T21:57:18.084Z,6.85
2023-05-16T22:00:16.763Z,6.60
2023-05-16T22:03:14.790Z,6.55
2023-05-16T22:06:12.769Z,6.65
2023-05-16T22:09:12.253Z,6.65
2023-05-16T22:12:10.700Z,6.70
2023-05-16T22:15:08.978Z,7.28
2023-05-16T22:18:07.103Z,6.68
2023-05-16T22:21:05.111Z,6.50
2023-05-16T22:24:03.069Z,7.10
2023-05-16T22:27:00.910Z,6.50
2023-05-16T22:29:58.877Z,6.75
2023-05-16T22:32:57.608Z,6.68
2023-05-16T22:35:55.834Z,6.70
2023-05-16T22:38:53.714Z,7.20
2023-05-16T22:41:52.213Z,7.07
2023-05-16T22:44:50.074Z,6.63
2023-05-16T22:47:48.156Z,6.22
2023-05-16T22:50:46.037Z,7.18
2023-05-16T22:53:44.021Z,6.95
2023-05-16T22:56:41.976Z,7.03
2023-05-16T22:59:39.988Z,6.97
2023-05-16T23:02:38.011Z,7.00
2023-05-16T23:05:36.453Z,5.80
2023-05-16T23:08:34.321Z,7.35
2023-05-16T23:11:33.809Z,7.03
2023-05-16T23:14:31.727Z,7.32
2023-05-16T23:17:29.714Z,6.70
2023-05-16T23:20:27.606Z,6.40
2023-05-16T23:23:25.606Z,6.30
2023-05-16T23:26:23.501Z,7.00
2023-05-16T23:29:21.598Z,7.20
2023-05-16T23:32:19.550Z,6.55
2023-05-16T23:35:17.574Z,6.88
2023-05-16T23:38:15.425Z,6.88
2023-05-16T23:41:13.416Z,6.05
2023-05-16T23:44:11.256Z,6.80
2023-05-16T23:47:10.040Z,6.13
2023-05-16T23:50:08.275Z,7.45
2023-05-16T23:53:06.273Z,6.63
2023-05-16T23:56:04.279Z,6.50
2023-05-16T23:59:02.217Z,6.50
